sensor_id;sensor_type;location;lat;lon;timestamp;temperature;humidity
73112;HTU21D;61301;51.956;5.876;2024-02-21T00:01:08;14.65;58.45
73112;HTU21D;61301;51.956;5.876;2024-02-21T00:03:39;14.66;58.41
73112;HTU21D;61301;51.956;5.876;2024-02-21T00:06:05;14.62;58.54
73112;HTU21D;61301;51.956;5.876;2024-02-21T00:08:31;14.59;58.69
73112;HTU21D;61301;51.956;5.876;2024-02-21T00:10:57;14.60;58.63
73112;HTU21D;61301;51.956;5.876;2024-02-21T00:13:23;14.63;58.58
73112;HTU21D;61301;51.956;5.876;2024-02-21T00:15:50;14.58;58.70
73112;HTU21D;61301;51.956;5.876;2024-02-21T00:18:16;14.64;58.60
73112;HTU21D;61301;51.956;5.876;2024-02-21T00:20:42;14.65;58.56
73112;HTU21D;61301;51.956;5.876;2024-02-21T00:23:08;14.64;58.57
73112;HTU21D;61301;51.956;5.876;2024-02-21T00:25:34;14.70;58.44
73112;HTU21D;61301;51.956;5.876;2024-02-21T00:28:00;14.73;58.29
73112;HTU21D;61301;51.956;5.876;2024-02-21T00:30:26;14.70;58.41
73112;HTU21D;61301;51.956;5.876;2024-02-21T00:32:52;14.64;58.52
73112;HTU21D;61301;51.956;5.876;2024-02-21T00:35:18;14.65;58.58
73112;HTU21D;61301;51.956;5.876;2024-02-21T00:37:44;14.65;58.57
73112;HTU21D;61301;51.956;5.876;2024-02-21T00:40:10;14.68;58.50
73112;HTU21D;61301;51.956;5.876;2024-02-21T00:42:36;14.64;58.61
73112;HTU21D;61301;51.956;5.876;2024-02-21T00:45:03;14.65;58.55
73112;HTU21D;61301;51.956;5.876;2024-02-21T00:47:29;14.66;58.54
73112;HTU21D;61301;51.956;5.876;2024-02-21T00:49:55;14.67;58.53
73112;HTU21D;61301;51.956;5.876;2024-02-21T00:52:21;14.67;58.56
73112;HTU21D;61301;51.956;5.876;2024-02-21T00:54:47;14.66;58.54
73112;HTU21D;61301;51.956;5.876;2024-02-21T00:57:17;14.65;58.58
73112;HTU21D;61301;51.956;5.876;2024-02-21T00:59:43;14.63;58.58
73112;HTU21D;61301;51.956;5.876;2024-02-21T01:02:09;14.64;58.54
73112;HTU21D;61301;51.956;5.876;2024-02-21T01:04:35;14.65;58.50
73112;HTU21D;61301;51.956;5.876;2024-02-21T01:07:02;14.64;58.48
73112;HTU21D;61301;51.956;5.876;2024-02-21T01:09:28;14.66;58.48
73112;HTU21D;61301;51.956;5.876;2024-02-21T01:11:54;14.66;58.40
73112;HTU21D;61301;51.956;5.876;2024-02-21T01:14:20;14.67;58.41
73112;HTU21D;61301;51.956;5.876;2024-02-21T01:16:46;14.67;58.45
73112;HTU21D;61301;51.956;5.876;2024-02-21T01:19:12;14.68;58.31
73112;HTU21D;61301;51.956;5.876;2024-02-21T01:21:38;14.65;58.39
73112;HTU21D;61301;51.956;5.876;2024-02-21T01:24:04;14.63;58.51
73112;HTU21D;61301;51.956;5.876;2024-02-21T01:26:30;14.59;58.50
73112;HTU21D;61301;51.956;5.876;2024-02-21T01:28:56;14.60;58.58
73112;HTU21D;61301;51.956;5.876;2024-02-21T01:31:22;14.60;58.54
73112;HTU21D;61301;51.956;5.876;2024-02-21T01:33:48;14.65;58.48
73112;HTU21D;61301;51.956;5.876;2024-02-21T01:36:14;14.62;58.60
73112;HTU21D;61301;51.956;5.876;2024-02-21T01:38:40;14.58;58.74
73112;HTU21D;61301;51.956;5.876;2024-02-21T01:41:06;14.60;58.66
73112;HTU21D;61301;51.956;5.876;2024-02-21T01:43:32;14.63;58.58
73112;HTU21D;61301;51.956;5.876;2024-02-21T01:45:58;14.66;58.52
73112;HTU21D;61301;51.956;5.876;2024-02-21T01:48:25;14.63;58.54
73112;HTU21D;61301;51.956;5.876;2024-02-21T01:50:52;14.64;58.58
73112;HTU21D;61301;51.956;5.876;2024-02-21T01:53:31;14.66;58.55
73112;HTU21D;61301;51.956;5.876;2024-02-21T01:55:58;14.56;58.73
73112;HTU21D;61301;51.956;5.876;2024-02-21T01:58:25;14.55;58.74
73112;HTU21D;61301;51.956;5.876;2024-02-21T02:00:51;14.63;58.65
73112;HTU21D;61301;51.956;5.876;2024-02-21T02:03:17;14.65;58.54
73112;HTU21D;61301;51.956;5.876;2024-02-21T02:05:47;14.58;58.74
73112;HTU21D;61301;51.956;5.876;2024-02-21T02:08:18;14.59;58.65
73112;HTU21D;61301;51.956;5.876;2024-02-21T02:10:45;14.57;58.60
73112;HTU21D;61301;51.956;5.876;2024-02-21T02:13:12;14.60;58.40
73112;HTU21D;61301;51.956;5.876;2024-02-21T02:15:39;14.57;58.55
73112;HTU21D;61301;51.956;5.876;2024-02-21T02:18:06;14.52;58.58
73112;HTU21D;61301;51.956;5.876;2024-02-21T02:20:32;14.53;58.64
73112;HTU21D;61301;51.956;5.876;2024-02-21T02:22:59;14.59;58.42
73112;HTU21D;61301;51.956;5.876;2024-02-21T02:25:26;14.67;58.11
73112;HTU21D;61301;51.956;5.876;2024-02-21T02:27:53;14.64;58.16
73112;HTU21D;61301;51.956;5.876;2024-02-21T02:30:19;14.57;58.25
73112;HTU21D;61301;51.956;5.876;2024-02-21T02:32:45;14.57;58.32
73112;HTU21D;61301;51.956;5.876;2024-02-21T02:35:14;14.59;58.28
73112;HTU21D;61301;51.956;5.876;2024-02-21T02:37:47;14.55;58.43
73112;HTU21D;61301;51.956;5.876;2024-02-21T02:40:13;14.44;58.64
73112;HTU21D;61301;51.956;5.876;2024-02-21T02:42:42;14.43;58.68
73112;HTU21D;61301;51.956;5.876;2024-02-21T02:45:09;14.41;58.80
73112;HTU21D;61301;51.956;5.876;2024-02-21T02:47:35;14.48;58.64
73112;HTU21D;61301;51.956;5.876;2024-02-21T02:50:01;14.50;58.56
73112;HTU21D;61301;51.956;5.876;2024-02-21T02:52:27;14.51;58.44
73112;HTU21D;61301;51.956;5.876;2024-02-21T02:54:53;14.51;58.40
73112;HTU21D;61301;51.956;5.876;2024-02-21T02:57:21;14.47;58.51
73112;HTU21D;61301;51.956;5.876;2024-02-21T02:59:51;14.44;58.70
73112;HTU21D;61301;51.956;5.876;2024-02-21T03:02:17;14.36;58.93
73112;HTU21D;61301;51.956;5.876;2024-02-21T03:04:44;14.32;59.05
73112;HTU21D;61301;51.956;5.876;2024-02-21T03:07:10;14.33;59.06
73112;HTU21D;61301;51.956;5.876;2024-02-21T03:09:39;14.28;59.22
73112;HTU21D;61301;51.956;5.876;2024-02-21T03:12:06;14.26;59.25
73112;HTU21D;61301;51.956;5.876;2024-02-21T03:14:32;14.25;59.31
73112;HTU21D;61301;51.956;5.876;2024-02-21T03:16:59;14.32;59.21
73112;HTU21D;61301;51.956;5.876;2024-02-21T03:19:25;14.27;59.16
73112;HTU21D;61301;51.956;5.876;2024-02-21T03:21:51;14.27;59.16
73112;HTU21D;61301;51.956;5.876;2024-02-21T03:24:21;14.39;58.88
73112;HTU21D;61301;51.956;5.876;2024-02-21T03:26:48;14.32;59.07
73112;HTU21D;61301;51.956;5.876;2024-02-21T03:29:15;14.32;59.08
73112;HTU21D;61301;51.956;5.876;2024-02-21T03:31:42;14.29;59.11
73112;HTU21D;61301;51.956;5.876;2024-02-21T03:34:10;14.29;59.19
73112;HTU21D;61301;51.956;5.876;2024-02-21T03:36:36;14.30;59.11
73112;HTU21D;61301;51.956;5.876;2024-02-21T03:39:03;14.29;59.17
73112;HTU21D;61301;51.956;5.876;2024-02-21T03:41:29;14.29;59.12
73112;HTU21D;61301;51.956;5.876;2024-02-21T03:43:55;14.27;59.15
73112;HTU21D;61301;51.956;5.876;2024-02-21T03:46:21;14.27;59.19
73112;HTU21D;61301;51.956;5.876;2024-02-21T03:48:47;14.30;59.09
73112;HTU21D;61301;51.956;5.876;2024-02-21T03:51:13;14.30;59.00
73112;HTU21D;61301;51.956;5.876;2024-02-21T03:53:40;14.36;58.87
73112;HTU21D;61301;51.956;5.876;2024-02-21T03:56:06;14.32;58.86
73112;HTU21D;61301;51.956;5.876;2024-02-21T03:58:33;14.34;58.86
73112;HTU21D;61301;51.956;5.876;2024-02-21T04:01:02;14.36;58.82
73112;HTU21D;61301;51.956;5.876;2024-02-21T04:03:30;14.36;58.78
73112;HTU21D;61301;51.956;5.876;2024-02-21T04:05:56;14.36;58.67
73112;HTU21D;61301;51.956;5.876;2024-02-21T04:08:22;14.34;58.67
73112;HTU21D;61301;51.956;5.876;2024-02-21T04:10:49;14.30;58.80
73112;HTU21D;61301;51.956;5.876;2024-02-21T04:13:15;14.34;58.74
73112;HTU21D;61301;51.956;5.876;2024-02-21T04:15:41;14.37;58.50
73112;HTU21D;61301;51.956;5.876;2024-02-21T04:18:07;14.33;58.64
73112;HTU21D;61301;51.956;5.876;2024-02-21T04:20:34;14.28;58.76
73112;HTU21D;61301;51.956;5.876;2024-02-21T04:23:00;14.23;58.84
73112;HTU21D;61301;51.956;5.876;2024-02-21T04:25:26;14.26;58.69
73112;HTU21D;61301;51.956;5.876;2024-02-21T04:27:52;14.22;58.80
73112;HTU21D;61301;51.956;5.876;2024-02-21T04:30:18;14.24;58.77
73112;HTU21D;61301;51.956;5.876;2024-02-21T04:32:44;14.23;58.78
73112;HTU21D;61301;51.956;5.876;2024-02-21T04:35:10;14.23;58.80
73112;HTU21D;61301;51.956;5.876;2024-02-21T04:37:36;14.21;58.81
73112;HTU21D;61301;51.956;5.876;2024-02-21T04:40:03;14.20;58.80
73112;HTU21D;61301;51.956;5.876;2024-02-21T04:42:29;14.23;58.79
73112;HTU21D;61301;51.956;5.876;2024-02-21T04:44:55;14.25;58.66
73112;HTU21D;61301;51.956;5.876;2024-02-21T04:47:21;14.26;58.53
73112;HTU21D;61301;51.956;5.876;2024-02-21T04:49:49;14.27;58.53
73112;HTU21D;61301;51.956;5.876;2024-02-21T04:52:15;14.26;58.56
73112;HTU21D;61301;51.956;5.876;2024-02-21T04:54:41;14.25;58.51
73112;HTU21D;61301;51.956;5.876;2024-02-21T04:57:07;14.28;58.50
73112;HTU21D;61301;51.956;5.876;2024-02-21T04:59:33;14.26;58.48
73112;HTU21D;61301;51.956;5.876;2024-02-21T05:02:00;14.26;58.48
73112;HTU21D;61301;51.956;5.876;2024-02-21T05:04:26;14.22;58.51
73112;HTU21D;61301;51.956;5.876;2024-02-21T05:06:52;14.23;58.47
73112;HTU21D;61301;51.956;5.876;2024-02-21T05:09:18;14.23;58.45
73112;HTU21D;61301;51.956;5.876;2024-02-21T05:11:44;14.25;58.47
73112;HTU21D;61301;51.956;5.876;2024-02-21T05:14:10;14.29;58.31
73112;HTU21D;61301;51.956;5.876;2024-02-21T05:16:38;14.25;58.48
73112;HTU21D;61301;51.956;5.876;2024-02-21T05:19:04;14.28;58.34
73112;HTU21D;61301;51.956;5.876;2024-02-21T05:21:30;14.26;58.35
73112;HTU21D;61301;51.956;5.876;2024-02-21T05:23:56;14.25;58.38
73112;HTU21D;61301;51.956;5.876;2024-02-21T05:26:26;14.20;58.64
73112;HTU21D;61301;51.956;5.876;2024-02-21T05:28:52;14.14;58.74
73112;HTU21D;61301;51.956;5.876;2024-02-21T05:31:22;14.21;58.73
73112;HTU21D;61301;51.956;5.876;2024-02-21T05:33:48;14.25;58.45
73112;HTU21D;61301;51.956;5.876;2024-02-21T05:36:14;14.24;58.35
73112;HTU21D;61301;51.956;5.876;2024-02-21T05:38:40;14.25;58.34
73112;HTU21D;61301;51.956;5.876;2024-02-21T05:41:06;14.22;58.44
73112;HTU21D;61301;51.956;5.876;2024-02-21T05:43:32;14.24;58.35
73112;HTU21D;61301;51.956;5.876;2024-02-21T05:45:58;14.23;58.35
73112;HTU21D;61301;51.956;5.876;2024-02-21T05:48:24;14.23;58.37
73112;HTU21D;61301;51.956;5.876;2024-02-21T05:50:50;14.24;58.37
73112;HTU21D;61301;51.956;5.876;2024-02-21T05:53:17;14.24;58.36
73112;HTU21D;61301;51.956;5.876;2024-02-21T05:55:43;14.24;58.32
73112;HTU21D;61301;51.956;5.876;2024-02-21T05:58:09;14.25;58.35
73112;HTU21D;61301;51.956;5.876;2024-02-21T06:00:39;14.26;58.27
73112;HTU21D;61301;51.956;5.876;2024-02-21T06:03:05;14.27;58.35
73112;HTU21D;61301;51.956;5.876;2024-02-21T06:05:31;14.22;58.39
73112;HTU21D;61301;51.956;5.876;2024-02-21T06:08:01;14.22;58.38
73112;HTU21D;61301;51.956;5.876;2024-02-21T06:10:27;14.22;58.31
73112;HTU21D;61301;51.956;5.876;2024-02-21T06:12:53;14.22;58.29
73112;HTU21D;61301;51.956;5.876;2024-02-21T06:15:19;14.23;58.28
73112;HTU21D;61301;51.956;5.876;2024-02-21T06:17:45;14.24;58.24
73112;HTU21D;61301;51.956;5.876;2024-02-21T06:20:11;14.25;58.20
73112;HTU21D;61301;51.956;5.876;2024-02-21T06:22:37;14.24;58.22
73112;HTU21D;61301;51.956;5.876;2024-02-21T06:25:03;14.23;58.20
73112;HTU21D;61301;51.956;5.876;2024-02-21T06:27:29;14.22;58.13
73112;HTU21D;61301;51.956;5.876;2024-02-21T06:29:55;14.21;58.12
73112;HTU21D;61301;51.956;5.876;2024-02-21T06:32:24;14.25;58.06
73112;HTU21D;61301;51.956;5.876;2024-02-21T06:34:51;14.24;58.00
73112;HTU21D;61301;51.956;5.876;2024-02-21T06:37:17;14.23;58.01
73112;HTU21D;61301;51.956;5.876;2024-02-21T06:39:43;14.26;57.82
73112;HTU21D;61301;51.956;5.876;2024-02-21T06:42:09;14.24;57.87
73112;HTU21D;61301;51.956;5.876;2024-02-21T06:44:35;14.25;57.90
73112;HTU21D;61301;51.956;5.876;2024-02-21T06:47:06;14.32;57.64
73112;HTU21D;61301;51.956;5.876;2024-02-21T06:49:34;14.27;57.74
73112;HTU21D;61301;51.956;5.876;2024-02-21T06:52:00;14.29;57.66
73112;HTU21D;61301;51.956;5.876;2024-02-21T06:54:26;14.26;57.67
73112;HTU21D;61301;51.956;5.876;2024-02-21T06:56:52;14.24;57.67
73112;HTU21D;61301;51.956;5.876;2024-02-21T06:59:18;14.23;57.68
73112;HTU21D;61301;51.956;5.876;2024-02-21T07:01:45;14.20;57.66
73112;HTU21D;61301;51.956;5.876;2024-02-21T07:04:12;14.24;57.67
73112;HTU21D;61301;51.956;5.876;2024-02-21T07:06:38;14.20;57.74
73112;HTU21D;61301;51.956;5.876;2024-02-21T07:09:04;14.25;57.67
73112;HTU21D;61301;51.956;5.876;2024-02-21T07:11:30;14.26;57.61
73112;HTU21D;61301;51.956;5.876;2024-02-21T07:13:56;14.25;57.60
73112;HTU21D;61301;51.956;5.876;2024-02-21T07:16:22;14.22;57.71
73112;HTU21D;61301;51.956;5.876;2024-02-21T07:18:48;14.22;57.65
73112;HTU21D;61301;51.956;5.876;2024-02-21T07:21:13;14.21;57.69
73112;HTU21D;61301;51.956;5.876;2024-02-21T07:23:41;14.25;57.64
73112;HTU21D;61301;51.956;5.876;2024-02-21T07:26:08;14.23;57.67
73112;HTU21D;61301;51.956;5.876;2024-02-21T07:28:34;14.19;57.83
73112;HTU21D;61301;51.956;5.876;2024-02-21T07:31:00;14.20;57.66
73112;HTU21D;61301;51.956;5.876;2024-02-21T07:33:26;14.24;57.60
73112;HTU21D;61301;51.956;5.876;2024-02-21T07:35:52;14.14;57.84
73112;HTU21D;61301;51.956;5.876;2024-02-21T07:38:18;14.20;57.71
73112;HTU21D;61301;51.956;5.876;2024-02-21T07:40:44;14.25;57.54
73112;HTU21D;61301;51.956;5.876;2024-02-21T07:43:10;14.26;57.48
73112;HTU21D;61301;51.956;5.876;2024-02-21T07:45:36;14.27;57.49
73112;HTU21D;61301;51.956;5.876;2024-02-21T07:48:04;14.30;57.40
73112;HTU21D;61301;51.956;5.876;2024-02-21T07:50:30;14.33;57.20
73112;HTU21D;61301;51.956;5.876;2024-02-21T07:52:57;14.38;57.20
73112;HTU21D;61301;51.956;5.876;2024-02-21T07:55:23;14.32;57.13
73112;HTU21D;61301;51.956;5.876;2024-02-21T07:57:49;14.42;57.09
73112;HTU21D;61301;51.956;5.876;2024-02-21T08:00:16;14.42;57.16
73112;HTU21D;61301;51.956;5.876;2024-02-21T08:02:49;14.44;56.97
73112;HTU21D;61301;51.956;5.876;2024-02-21T08:05:15;14.40;56.87
73112;HTU21D;61301;51.956;5.876;2024-02-21T08:07:41;14.39;56.81
73112;HTU21D;61301;51.956;5.876;2024-02-21T08:10:07;14.41;56.93
73112;HTU21D;61301;51.956;5.876;2024-02-21T08:12:34;14.41;56.80
73112;HTU21D;61301;51.956;5.876;2024-02-21T08:15:01;14.48;56.61
73112;HTU21D;61301;51.956;5.876;2024-02-21T08:17:29;14.48;56.68
73112;HTU21D;61301;51.956;5.876;2024-02-21T08:19:55;14.47;56.55
73112;HTU21D;61301;51.956;5.876;2024-02-21T08:22:21;14.48;56.57
73112;HTU21D;61301;51.956;5.876;2024-02-21T08:24:47;14.47;56.46
73112;HTU21D;61301;51.956;5.876;2024-02-21T08:27:13;14.49;56.50
73112;HTU21D;61301;51.956;5.876;2024-02-21T08:29:39;14.51;56.36
73112;HTU21D;61301;51.956;5.876;2024-02-21T08:32:05;14.67;56.13
73112;HTU21D;61301;51.956;5.876;2024-02-21T08:34:31;14.62;56.10
73112;HTU21D;61301;51.956;5.876;2024-02-21T08:37:00;14.62;56.12
73112;HTU21D;61301;51.956;5.876;2024-02-21T08:39:26;14.49;56.31
73112;HTU21D;61301;51.956;5.876;2024-02-21T08:41:54;14.56;56.21
73112;HTU21D;61301;51.956;5.876;2024-02-21T08:44:22;14.60;56.26
73112;HTU21D;61301;51.956;5.876;2024-02-21T08:46:48;14.65;56.10
73112;HTU21D;61301;51.956;5.876;2024-02-21T08:49:14;14.58;56.16
73112;HTU21D;61301;51.956;5.876;2024-02-21T08:51:40;14.64;55.97
73112;HTU21D;61301;51.956;5.876;2024-02-21T08:54:06;14.60;55.97
73112;HTU21D;61301;51.956;5.876;2024-02-21T08:56:33;14.69;55.86
73112;HTU21D;61301;51.956;5.876;2024-02-21T08:59:01;14.65;55.90
73112;HTU21D;61301;51.956;5.876;2024-02-21T09:01:27;14.65;55.97
73112;HTU21D;61301;51.956;5.876;2024-02-21T09:03:54;14.77;55.85
73112;HTU21D;61301;51.956;5.876;2024-02-21T09:06:22;14.83;55.61
73112;HTU21D;61301;51.956;5.876;2024-02-21T09:08:49;14.75;55.68
73112;HTU21D;61301;51.956;5.876;2024-02-21T09:11:15;14.83;55.30
73112;HTU21D;61301;51.956;5.876;2024-02-21T09:13:41;14.75;55.45
73112;HTU21D;61301;51.956;5.876;2024-02-21T09:16:07;14.91;55.36
73112;HTU21D;61301;51.956;5.876;2024-02-21T09:18:33;14.81;55.36
73112;HTU21D;61301;51.956;5.876;2024-02-21T09:20:59;14.83;55.26
73112;HTU21D;61301;51.956;5.876;2024-02-21T09:23:26;14.93;55.22
73112;HTU21D;61301;51.956;5.876;2024-02-21T09:25:52;15.01;55.19
73112;HTU21D;61301;51.956;5.876;2024-02-21T09:28:18;15.00;54.80
73112;HTU21D;61301;51.956;5.876;2024-02-21T09:30:44;14.93;55.09
73112;HTU21D;61301;51.956;5.876;2024-02-21T09:33:11;14.95;55.12
73112;HTU21D;61301;51.956;5.876;2024-02-21T09:35:37;14.89;54.94
73112;HTU21D;61301;51.956;5.876;2024-02-21T09:38:03;14.92;54.93
73112;HTU21D;61301;51.956;5.876;2024-02-21T09:40:30;14.86;55.10
73112;HTU21D;61301;51.956;5.876;2024-02-21T09:43:03;14.99;54.92
73112;HTU21D;61301;51.956;5.876;2024-02-21T09:45:30;14.97;54.91
73112;HTU21D;61301;51.956;5.876;2024-02-21T09:50:34;14.97;54.82
73112;HTU21D;61301;51.956;5.876;2024-02-21T09:53:02;14.97;54.78
73112;HTU21D;61301;51.956;5.876;2024-02-21T09:55:31;15.02;54.84
73112;HTU21D;61301;51.956;5.876;2024-02-21T09:58:01;15.07;54.89
73112;HTU21D;61301;51.956;5.876;2024-02-21T10:00:29;15.25;54.57
73112;HTU21D;61301;51.956;5.876;2024-02-21T10:02:55;15.30;54.32
73112;HTU21D;61301;51.956;5.876;2024-02-21T10:05:21;15.18;54.24
73112;HTU21D;61301;51.956;5.876;2024-02-21T10:07:48;15.12;54.35
73112;HTU21D;61301;51.956;5.876;2024-02-21T10:10:15;15.06;54.59
73112;HTU21D;61301;51.956;5.876;2024-02-21T10:12:51;15.36;54.08
73112;HTU21D;61301;51.956;5.876;2024-02-21T10:15:21;15.41;54.04
73112;HTU21D;61301;51.956;5.876;2024-02-21T10:17:49;15.37;54.16
73112;HTU21D;61301;51.956;5.876;2024-02-21T10:20:15;15.42;53.83
73112;HTU21D;61301;51.956;5.876;2024-02-21T10:22:42;15.41;54.20
73112;HTU21D;61301;51.956;5.876;2024-02-21T10:25:12;15.60;53.79
73112;HTU21D;61301;51.956;5.876;2024-02-21T10:27:39;15.56;54.07
73112;HTU21D;61301;51.956;5.876;2024-02-21T10:30:07;15.38;54.37
73112;HTU21D;61301;51.956;5.876;2024-02-21T10:32:33;15.16;54.85
73112;HTU21D;61301;51.956;5.876;2024-02-21T10:35:03;15.39;54.68
73112;HTU21D;61301;51.956;5.876;2024-02-21T10:37:31;15.28;55.01
73112;HTU21D;61301;51.956;5.876;2024-02-21T10:40:00;15.30;55.10
73112;HTU21D;61301;51.956;5.876;2024-02-21T10:42:29;15.31;55.25
73112;HTU21D;61301;51.956;5.876;2024-02-21T10:45:01;15.28;55.47
73112;HTU21D;61301;51.956;5.876;2024-02-21T10:47:32;15.42;55.07
73112;HTU21D;61301;51.956;5.876;2024-02-21T10:50:02;14.98;56.53
73112;HTU21D;61301;51.956;5.876;2024-02-21T10:52:49;15.04;56.84
73112;HTU21D;61301;51.956;5.876;2024-02-21T10:55:21;14.97;56.91
73112;HTU21D;61301;51.956;5.876;2024-02-21T10:57:52;14.83;57.32
73112;HTU21D;61301;51.956;5.876;2024-02-21T11:00:19;14.91;57.29
73112;HTU21D;61301;51.956;5.876;2024-02-21T11:02:46;14.96;57.03
73112;HTU21D;61301;51.956;5.876;2024-02-21T11:05:18;14.88;57.56
73112;HTU21D;61301;51.956;5.876;2024-02-21T11:07:45;14.84;57.67
73112;HTU21D;61301;51.956;5.876;2024-02-21T11:10:24;14.89;57.64
73112;HTU21D;61301;51.956;5.876;2024-02-21T11:13:09;15.04;56.80
73112;HTU21D;61301;51.956;5.876;2024-02-21T11:15:35;14.93;57.25
73112;HTU21D;61301;51.956;5.876;2024-02-21T11:18:01;14.93;56.96
73112;HTU21D;61301;51.956;5.876;2024-02-21T11:23:00;14.99;56.29
73112;HTU21D;61301;51.956;5.876;2024-02-21T11:25:30;14.86;57.00
73112;HTU21D;61301;51.956;5.876;2024-02-21T11:28:05;15.00;56.26
73112;HTU21D;61301;51.956;5.876;2024-02-21T11:30:35;14.84;56.61
73112;HTU21D;61301;51.956;5.876;2024-02-21T11:33:02;14.88;56.95
73112;HTU21D;61301;51.956;5.876;2024-02-21T11:35:35;14.95;56.35
73112;HTU21D;61301;51.956;5.876;2024-02-21T11:38:12;14.97;56.39
73112;HTU21D;61301;51.956;5.876;2024-02-21T11:40:43;14.89;56.56
73112;HTU21D;61301;51.956;5.876;2024-02-21T11:43:09;14.96;56.37
73112;HTU21D;61301;51.956;5.876;2024-02-21T11:45:35;15.00;56.29
73112;HTU21D;61301;51.956;5.876;2024-02-21T11:48:01;15.03;55.73
73112;HTU21D;61301;51.956;5.876;2024-02-21T11:50:29;14.87;55.71
73112;HTU21D;61301;51.956;5.876;2024-02-21T11:52:57;14.95;55.86
73112;HTU21D;61301;51.956;5.876;2024-02-21T11:55:23;14.88;55.38
73112;HTU21D;61301;51.956;5.876;2024-02-21T11:57:49;14.77;55.61
73112;HTU21D;61301;51.956;5.876;2024-02-21T12:00:17;14.97;55.39
73112;HTU21D;61301;51.956;5.876;2024-02-21T12:02:46;15.02;55.12
73112;HTU21D;61301;51.956;5.876;2024-02-21T12:05:12;14.99;55.23
73112;HTU21D;61301;51.956;5.876;2024-02-21T12:07:39;14.96;55.10
73112;HTU21D;61301;51.956;5.876;2024-02-21T12:10:12;14.96;54.71
73112;HTU21D;61301;51.956;5.876;2024-02-21T12:12:39;14.94;54.81
73112;HTU21D;61301;51.956;5.876;2024-02-21T12:15:06;15.15;54.46
73112;HTU21D;61301;51.956;5.876;2024-02-21T12:17:36;15.18;54.17
73112;HTU21D;61301;51.956;5.876;2024-02-21T12:20:06;15.29;54.03
73112;HTU21D;61301;51.956;5.876;2024-02-21T12:22:35;15.34;54.02
73112;HTU21D;61301;51.956;5.876;2024-02-21T12:25:16;15.52;53.37
73112;HTU21D;61301;51.956;5.876;2024-02-21T12:27:43;15.44;53.31
73112;HTU21D;61301;51.956;5.876;2024-02-21T12:30:09;15.62;53.43
73112;HTU21D;61301;51.956;5.876;2024-02-21T12:32:36;15.77;53.41
73112;HTU21D;61301;51.956;5.876;2024-02-21T12:35:05;15.90;52.74
73112;HTU21D;61301;51.956;5.876;2024-02-21T12:37:34;15.97;52.44
73112;HTU21D;61301;51.956;5.876;2024-02-21T12:40:01;16.03;52.32
73112;HTU21D;61301;51.956;5.876;2024-02-21T12:42:33;16.08;51.99
73112;HTU21D;61301;51.956;5.876;2024-02-21T12:45:00;15.99;52.14
73112;HTU21D;61301;51.956;5.876;2024-02-21T12:47:26;16.01;51.95
73112;HTU21D;61301;51.956;5.876;2024-02-21T12:49:52;16.11;52.17
73112;HTU21D;61301;51.956;5.876;2024-02-21T12:52:19;16.14;51.58
73112;HTU21D;61301;51.956;5.876;2024-02-21T12:54:45;16.08;52.01
73112;HTU21D;61301;51.956;5.876;2024-02-21T12:57:11;16.13;51.76
73112;HTU21D;61301;51.956;5.876;2024-02-21T12:59:40;16.07;52.02
73112;HTU21D;61301;51.956;5.876;2024-02-21T13:02:12;16.18;51.63
73112;HTU21D;61301;51.956;5.876;2024-02-21T13:04:38;16.06;51.41
73112;HTU21D;61301;51.956;5.876;2024-02-21T13:07:06;16.15;51.31
73112;HTU21D;61301;51.956;5.876;2024-02-21T13:09:35;16.29;51.19
73112;HTU21D;61301;51.956;5.876;2024-02-21T13:12:01;16.08;51.33
73112;HTU21D;61301;51.956;5.876;2024-02-21T13:14:28;15.91;51.79
73112;HTU21D;61301;51.956;5.876;2024-02-21T13:16:54;15.90;52.05
73112;HTU21D;61301;51.956;5.876;2024-02-21T13:19:20;15.98;52.11
73112;HTU21D;61301;51.956;5.876;2024-02-21T13:21:47;16.03;52.27
73112;HTU21D;61301;51.956;5.876;2024-02-21T13:24:13;16.18;51.72
73112;HTU21D;61301;51.956;5.876;2024-02-21T13:26:39;16.40;50.70
73112;HTU21D;61301;51.956;5.876;2024-02-21T13:29:05;16.39;51.27
73112;HTU21D;61301;51.956;5.876;2024-02-21T13:31:31;16.29;51.33
73112;HTU21D;61301;51.956;5.876;2024-02-21T13:33:57;16.28;51.46
73112;HTU21D;61301;51.956;5.876;2024-02-21T13:36:26;16.47;51.11
73112;HTU21D;61301;51.956;5.876;2024-02-21T13:38:52;16.47;51.27
73112;HTU21D;61301;51.956;5.876;2024-02-21T13:41:18;16.47;51.46
73112;HTU21D;61301;51.956;5.876;2024-02-21T13:43:44;16.48;51.11
73112;HTU21D;61301;51.956;5.876;2024-02-21T13:46:12;16.50;51.20
73112;HTU21D;61301;51.956;5.876;2024-02-21T13:48:41;16.60;50.85
73112;HTU21D;61301;51.956;5.876;2024-02-21T13:51:07;16.51;50.65
73112;HTU21D;61301;51.956;5.876;2024-02-21T13:53:33;16.46;50.89
73112;HTU21D;61301;51.956;5.876;2024-02-21T13:56:00;16.48;51.01
73112;HTU21D;61301;51.956;5.876;2024-02-21T13:58:26;16.35;51.13
73112;HTU21D;61301;51.956;5.876;2024-02-21T14:00:52;16.47;51.08
73112;HTU21D;61301;51.956;5.876;2024-02-21T14:03:19;16.42;50.88
73112;HTU21D;61301;51.956;5.876;2024-02-21T14:05:46;16.40;50.95
73112;HTU21D;61301;51.956;5.876;2024-02-21T14:08:14;16.49;50.57
73112;HTU21D;61301;51.956;5.876;2024-02-21T14:10:40;16.40;50.77
73112;HTU21D;61301;51.956;5.876;2024-02-21T14:13:06;16.45;50.69
73112;HTU21D;61301;51.956;5.876;2024-02-21T14:15:32;16.26;50.52
73112;HTU21D;61301;51.956;5.876;2024-02-21T14:17:58;16.15;50.48
73112;HTU21D;61301;51.956;5.876;2024-02-21T14:20:24;16.21;50.47
73112;HTU21D;61301;51.956;5.876;2024-02-21T14:22:50;16.20;49.86
73112;HTU21D;61301;51.956;5.876;2024-02-21T14:25:16;16.01;49.78
73112;HTU21D;61301;51.956;5.876;2024-02-21T14:27:42;16.01;49.60
73112;HTU21D;61301;51.956;5.876;2024-02-21T14:30:09;16.11;49.47
73112;HTU21D;61301;51.956;5.876;2024-02-21T14:32:40;16.14;49.38
73112;HTU21D;61301;51.956;5.876;2024-02-21T14:35:12;16.18;49.32
73112;HTU21D;61301;51.956;5.876;2024-02-21T14:37:37;16.20;49.08
73112;HTU21D;61301;51.956;5.876;2024-02-21T14:40:04;16.10;49.32
73112;HTU21D;61301;51.956;5.876;2024-02-21T14:42:30;15.93;49.70
73112;HTU21D;61301;51.956;5.876;2024-02-21T14:44:56;15.99;49.85
73112;HTU21D;61301;51.956;5.876;2024-02-21T14:47:30;15.91;49.89
73112;HTU21D;61301;51.956;5.876;2024-02-21T14:49:57;16.01;49.95
73112;HTU21D;61301;51.956;5.876;2024-02-21T14:52:23;15.90;50.08
73112;HTU21D;61301;51.956;5.876;2024-02-21T14:54:50;15.84;50.29
73112;HTU21D;61301;51.956;5.876;2024-02-21T14:57:17;15.89;50.38
73112;HTU21D;61301;51.956;5.876;2024-02-21T14:59:43;15.92;50.07
73112;HTU21D;61301;51.956;5.876;2024-02-21T15:02:09;15.95;50.26
73112;HTU21D;61301;51.956;5.876;2024-02-21T15:04:36;15.97;50.27
73112;HTU21D;61301;51.956;5.876;2024-02-21T15:07:02;16.03;50.60
73112;HTU21D;61301;51.956;5.876;2024-02-21T15:09:28;16.13;50.20
73112;HTU21D;61301;51.956;5.876;2024-02-21T15:11:54;16.10;50.34
73112;HTU21D;61301;51.956;5.876;2024-02-21T15:14:20;16.04;50.46
73112;HTU21D;61301;51.956;5.876;2024-02-21T15:16:46;16.16;50.55
73112;HTU21D;61301;51.956;5.876;2024-02-21T15:19:12;16.12;50.76